Flight Track Log - Related Links

Times and Time Zones

All times are in EDT time to prevent confusion due to time zone crossing. See the FLG3735 flight status page for this flight to view local times or setup timezone preferences in your user account.

Time Position Orientation Groundspeed Altitude Reporting Facility
EDT Latitude Longitude Course Direction KTS MPH feet Rate Location/Type
Tue 09:36:19 PM 42.1994 -83.3581 56° Northeast 155 178 1,400  Level Cleveland Center
Tue 09:37:19 PM 42.1517 -83.3531 176° South 189 217 3,500 1,937 Climbing Cleveland Center
Tue 09:38:26 PM 42.0875 -83.3308 166° South 269 310 5,500 2,115 Climbing Cleveland Center
Tue 09:39:00 PM 42.3131 -82.7681 75° East  Level FlightAware Approximate
Tue 09:39:21 PM 42.0875 -83.2442 90° East 288 331 7,800  Level Cleveland Center
Tue 09:40:00 PM 42.3298 -82.6193 82° East  Level FlightAware Approximate
Tue 09:40:33 PM 42.1194 -83.1250 70° East 313 360 10,400  Level Cleveland Center
Tue 09:41:00 PM 42.3544 -82.4745 56° Northeast  Level FlightAware Approximate
Tue 09:41:33 PM 42.1614 -83.0119 63° Northeast 319 367 11,400  Level Cleveland Center
Tue 09:42:33 PM 42.2100 -82.8847 63° Northeast 343 395 12,500 1,350 Climbing Cleveland Center
Tue 09:43:33 PM 42.2564 -82.7517 65° Northeast 367 422 14,100 1,750 Climbing Cleveland Center
Tue 09:44:33 PM 42.3067 -82.6214 62° Northeast 381 438 16,000 1,650 Climbing Cleveland Center
Tue 09:45:33 PM 42.3592 -82.4769 64° Northeast 381 438 17,400 1,250 Climbing Cleveland Center
Tue 09:46:33 PM 42.3633 -82.3422 88° East 381 438 18,500 1,000 Climbing Cleveland Center
Tue 09:47:33 PM 42.3553 -82.1847 94° East 392 451 19,400 900 Climbing Cleveland Center
Tue 09:48:33 PM 42.3492 -82.0103 93° East 418 481 20,300 900 Climbing Cleveland Center
Tue 09:49:33 PM 42.3428 -81.8472 93° East 432 497 21,200 800 Climbing Cleveland Center
Tue 09:50:33 PM 42.3361 -81.6842 93° East 427 491 21,900 650 Climbing Cleveland Center
Tue 09:51:33 PM 42.3292 -81.5211 93° East 427 491 22,500 550 Climbing Cleveland Center
Tue 09:52:33 PM 42.3200 -81.3525 94° East 445 512 23,000 450 Climbing Cleveland Center
Tue 09:53:33 PM 42.3106 -81.2008 95° East 453 521 23,400 450 Climbing Cleveland Center
Tue 09:54:33 PM 42.3175 -81.0269 87° East 453 521 23,900 500 Climbing Cleveland Center
Tue 09:55:33 PM 42.3328 -80.8556 83° East 454 522 24,400 550 Climbing Cleveland Center
Tue 09:56:33 PM 42.3475 -80.6844 83° East 462 532 25,000 300 Climbing Cleveland Center
Tue 09:57:33 PM 42.3644 -80.5158 82° East 462 532 25,000  Level Cleveland Center
Tue 09:58:33 PM 42.3786 -80.3331 84° East 468 539 25,000  Level Cleveland Center
Tue 09:59:33 PM 42.3969 -80.1389 83° East 468 539 25,000  Level Cleveland Center
Tue 10:00:33 PM 42.4108 -79.9786 83° East 476 548 25,000  Level Cleveland Center
Tue 10:01:33 PM 42.4242 -79.7983 84° East 476 548 25,000  Level Cleveland Center
Tue 10:02:33 PM 42.4394 -79.6211 83° East 476 548 25,000  Level Cleveland Center
Tue 10:03:33 PM 42.4525 -79.4436 84° East 476 548 25,000  Level Cleveland Center
Tue 10:04:33 PM 42.4714 -79.2489 82° East 481 554 25,000  Level Cleveland Center
Tue 10:05:33 PM 42.4817 -79.0686 86° East 481 554 25,000  Level Cleveland Center
Tue 10:06:33 PM 42.4958 -78.8908 84° East 481 554 25,000  Level Cleveland Center
Tue 10:07:34 PM 42.5097 -78.7100 84° East 481 554 25,000  Level Cleveland Center
Tue 10:08:33 PM 42.5211 -78.5322 85° East 481 554 25,000  Level Cleveland Center
Tue 10:09:33 PM 42.5325 -78.3544 85° East 481 554 25,000  Level Cleveland Center
Tue 10:10:33 PM 42.5436 -78.1764 85° East 481 554 25,000  Level Cleveland Center
Tue 10:12:33 PM 42.5669 -77.8203 85° East 476 548 25,000  Level Cleveland Center
Tue 10:13:33 PM 42.5769 -77.6450 86° East 471 542 25,000  Level Cleveland Center
Tue 10:15:14 PM 42.5939 -77.3653 85° East 484 557 25,000  Level Boston Center
Tue 10:16:14 PM 42.6053 -77.1914 85° East 484 557 25,000  Level Boston Center
Tue 10:18:14 PM 42.6225 -76.8736 86° East 473 544 25,000  Level Boston Center
Tue 10:19:14 PM 42.6347 -76.6628 85° East 473 544 25,000  Level Boston Center
Tue 10:20:14 PM 42.6431 -76.4853 86° East 468 539 25,000  Level Boston Center
Tue 10:21:14 PM 42.6533 -76.3108 85° East 468 539 25,000 -200 Level Boston Center
Tue 10:22:14 PM 42.6592 -76.1361 87° East 462 532 24,600 -850 Descending Boston Center
Tue 10:23:14 PM 42.6689 -75.9644 86° East 462 532 23,300 -1,300 Descending Boston Center
Tue 10:24:14 PM 42.6758 -75.7981 87° East 451 519 22,000 -1,300 Descending Boston Center
Tue 10:25:14 PM 42.6850 -75.6292 86° East 451 519 20,700 -1,300 Descending Boston Center
Tue 10:26:14 PM 42.6914 -75.4656 87° East 444 511 19,400 -1,300 Descending Boston Center
Tue 10:27:14 PM 42.6978 -75.3078 87° East 432 497 18,100 -1,350 Descending Boston Center
Tue 10:28:14 PM 42.7042 -75.1300 87° East 427 491 16,700 -1,400 Descending Boston Center
Tue 10:29:14 PM 42.7097 -74.9747 87° East 422 486 15,300 -1,400 Descending Boston Center
Tue 10:30:14 PM 42.7153 -74.8194 87° East 417 480 13,900 -1,376 Descending Boston Center
Tue 10:31:03 PM 42.7219 -74.6925 86° East 400 460 12,800 -1,398 Descending Boston Center
Tue 10:31:57 PM 42.7264 -74.5656 87° East 394 453 11,500 -1,352 Descending Boston Center
Tue 10:32:14 PM 42.7253 -74.5203 92° East 393 452 11,200 -885 Descending Boston Center
Tue 10:32:58 PM 42.7436 -74.4333 74° East 361 415 10,600 -800 Descending Boston Center
Tue 10:33:14 PM 42.7522 -74.4108 62° Northeast 352 405 10,400 -1,279 Descending Boston Center
Tue 10:33:59 PM 42.7828 -74.3269 64° Northeast 274 315 9,300 -1,500 Descending Boston Center
Tue 10:34:14 PM 42.7917 -74.3047 61° Northeast 292 336 8,900 -1,700 Descending Boston Center
Tue 10:34:59 PM 42.8197 -74.2347 61° Northeast 269 310 7,600 -1,600 Descending Boston Center
Tue 10:35:14 PM 42.8242 -74.2206 67° East 274 315 7,300 -1,672 Descending Boston Center
Tue 10:36:00 PM 42.8461 -74.1450 68° East 256 295 5,900 -1,755 Descending Boston Center
Tue 10:37:00 PM 42.8517 -74.0517 85° East 244 281 4,200 -1,736 Descending Boston Center
Tue 10:38:01 PM 42.8489 -73.9525 92° East 255 293 2,400 -1,770 Descending Boston Center

Login

Don't have an account? Register now (free) for customized features, flight alerts, and more!